createdAt,value
2022-08-27T00:01:55.779Z,19.93
2022-08-27T00:04:58.860Z,19.75
2022-08-27T00:08:01.568Z,19.50
2022-08-27T00:11:04.599Z,19.60
2022-08-27T00:14:07.234Z,19.69
2022-08-27T00:17:11.103Z,19.70
2022-08-27T00:20:17.148Z,19.78
2022-08-27T00:23:20.136Z,19.58
2022-08-27T00:26:22.764Z,19.70
2022-08-27T00:29:29.896Z,19.42
2022-08-27T00:32:32.674Z,19.37
2022-08-27T00:35:35.826Z,19.15
2022-08-27T00:38:40.455Z,19.25
2022-08-27T00:41:48.522Z,19.28
2022-08-27T00:44:51.249Z,19.24
2022-08-27T00:47:58.119Z,19.25
2022-08-27T00:51:01.418Z,19.30
2022-08-27T00:54:05.869Z,19.24
2022-08-27T00:57:08.723Z,19.40
2022-08-27T01:00:16.132Z,19.58
2022-08-27T01:03:18.793Z,19.73
2022-08-27T01:06:23.658Z,19.71
2022-08-27T01:09:27.099Z,19.76
2022-08-27T01:12:31.835Z,19.77
2022-08-27T01:15:35.256Z,19.73
2022-08-27T01:18:39.375Z,19.74
2022-08-27T01:22:21.875Z,19.62
2022-08-27T01:25:27.534Z,19.60
2022-08-27T01:28:37.485Z,19.54
2022-08-27T01:31:40.912Z,19.45
2022-08-27T01:34:43.686Z,19.39
2022-08-27T01:37:49.976Z,19.36
2022-08-27T01:40:55.927Z,19.33
2022-08-27T01:43:59.101Z,19.34
2022-08-27T01:47:02.300Z,19.31
2022-08-27T01:50:11.309Z,19.26
2022-08-27T01:53:25.234Z,19.22
2022-08-27T01:56:28.381Z,19.17
2022-08-27T01:59:39.719Z,19.09
2022-08-27T02:02:43.987Z,19.11
2022-08-27T02:05:48.553Z,19.13
2022-08-27T02:08:51.211Z,19.11
2022-08-27T02:11:54.173Z,19.02
2022-08-27T02:14:56.860Z,18.96
2022-08-27T02:18:00.526Z,18.91
2022-08-27T02:21:03.267Z,18.79
2022-08-27T02:24:06.507Z,18.75
2022-08-27T02:27:09.646Z,18.85
2022-08-27T02:30:15.198Z,18.83
2022-08-27T02:33:18.078Z,18.71
2022-08-27T02:36:21.230Z,18.79
2022-08-27T02:39:23.915Z,18.69
2022-08-27T02:42:27.165Z,18.62
2022-08-27T02:45:29.801Z,18.56
2022-08-27T02:48:36.590Z,18.44
2022-08-27T02:51:39.415Z,18.44
2022-08-27T02:54:42.483Z,18.27
2022-08-27T02:57:45.898Z,18.05
2022-08-27T03:00:48.944Z,18.18
2022-08-27T03:03:52.143Z,18.22
2022-08-27T03:06:56.405Z,18.17
2022-08-27T03:09:59.129Z,18.17
2022-08-27T03:13:03.216Z,18.28
2022-08-27T03:16:07.432Z,18.31
2022-08-27T03:19:11.094Z,18.50
2022-08-27T03:22:13.740Z,18.54
2022-08-27T03:25:17.446Z,18.87
2022-08-27T03:28:26.052Z,18.92
2022-08-27T03:31:29.474Z,18.93
2022-08-27T03:34:32.169Z,18.90
2022-08-27T03:37:35.208Z,18.92
2022-08-27T03:40:37.942Z,18.95
2022-08-27T03:43:40.986Z,18.87
2022-08-27T03:46:44.231Z,18.84
2022-08-27T03:49:47.196Z,18.77
2022-08-27T03:52:49.966Z,18.72
2022-08-27T03:55:52.992Z,18.64
2022-08-27T03:58:55.657Z,18.66
2022-08-27T04:01:58.673Z,18.66
2022-08-27T04:05:01.667Z,18.69
2022-08-27T04:08:04.329Z,18.65
2022-08-27T04:11:07.911Z,18.65
2022-08-27T04:14:26.272Z,18.68
2022-08-27T04:17:30.094Z,18.71
2022-08-27T04:20:35.352Z,18.76
2022-08-27T04:23:40.777Z,18.66
2022-08-27T04:26:45.787Z,18.72
2022-08-27T04:29:48.776Z,18.78
2022-08-27T04:32:54.224Z,18.77
2022-08-27T04:36:02.485Z,18.84
2022-08-27T04:39:05.146Z,18.88
2022-08-27T04:42:08.251Z,19.06
2022-08-27T04:45:11.365Z,19.20
2022-08-27T04:48:16.306Z,19.33
2022-08-27T04:51:20.531Z,19.48
2022-08-27T04:54:32.324Z,19.65
2022-08-27T04:57:37.993Z,19.77
2022-08-27T05:00:46.312Z,19.84
2022-08-27T05:03:48.975Z,19.86
2022-08-27T05:06:54.499Z,20.12
2022-08-27T05:09:57.637Z,20.23
2022-08-27T05:13:00.501Z,20.32
2022-08-27T05:16:09.944Z,20.46
2022-08-27T05:19:16.344Z,20.49
2022-08-27T05:22:19.027Z,20.67
2022-08-27T05:25:22.775Z,20.83
2022-08-27T05:28:27.849Z,20.86
2022-08-27T05:31:31.284Z,21.01
2022-08-27T05:34:33.879Z,21.16
2022-08-27T05:37:37.083Z,21.28
2022-08-27T05:40:40.641Z,21.38
2022-08-27T05:43:49.637Z,21.45
2022-08-27T05:46:53.254Z,21.56
2022-08-27T05:49:56.671Z,21.71
2022-08-27T05:52:59.461Z,21.88
2022-08-27T05:56:02.488Z,22.03
2022-08-27T05:59:25.283Z,22.20
2022-08-27T06:02:29.534Z,22.40
2022-08-27T06:05:32.590Z,22.61
2022-08-27T06:08:37.016Z,22.66
2022-08-27T06:11:40.516Z,22.79
2022-08-27T06:14:43.136Z,22.89
2022-08-27T06:17:46.155Z,22.67
2022-08-27T06:20:48.755Z,22.93
2022-08-27T06:23:53.370Z,23.08
2022-08-27T06:26:56.722Z,23.10
2022-08-27T06:29:59.790Z,23.14
2022-08-27T06:33:02.394Z,23.27
2022-08-27T06:36:08.640Z,23.27
2022-08-27T06:39:13.810Z,23.59
2022-08-27T06:42:16.736Z,23.76
2022-08-27T06:45:22.995Z,23.85
2022-08-27T06:48:26.312Z,24.01
2022-08-27T06:51:35.228Z,24.23
2022-08-27T06:54:39.860Z,24.22
2022-08-27T06:57:42.516Z,24.42
2022-08-27T07:00:48.865Z,24.59
2022-08-27T07:03:54.021Z,24.55
2022-08-27T07:06:57.015Z,24.65
2022-08-27T07:09:59.886Z,24.83
2022-08-27T07:13:03.326Z,24.97
2022-08-27T07:16:12.924Z,25.03
2022-08-27T07:19:16.288Z,25.15
2022-08-27T07:22:19.496Z,25.28
2022-08-27T07:25:22.512Z,25.43
2022-08-27T07:28:26.299Z,25.47
2022-08-27T07:31:29.492Z,25.64
2022-08-27T07:34:32.250Z,25.79
2022-08-27T07:37:40.236Z,25.96
2022-08-27T07:40:42.818Z,26.09
2022-08-27T07:44:04.174Z,26.24
2022-08-27T07:47:07.904Z,26.41
2022-08-27T07:50:11.262Z,26.54
2022-08-27T07:53:13.974Z,26.73
2022-08-27T07:56:18.964Z,26.78
2022-08-27T07:59:21.929Z,26.82
2022-08-27T08:02:27.775Z,26.88
2022-08-27T08:05:31.196Z,27.03
2022-08-27T08:08:35.308Z,27.17
2022-08-27T08:11:38.271Z,27.34
2022-08-27T08:14:40.987Z,27.47
2022-08-27T08:17:44.487Z,27.54
2022-08-27T08:20:58.047Z,27.66
2022-08-27T08:24:02.565Z,27.74
2022-08-27T08:27:07.674Z,27.90
2022-08-27T08:30:12.202Z,27.99
2022-08-27T08:33:15.062Z,28.22
2022-08-27T08:36:18.102Z,28.23
2022-08-27T08:39:20.719Z,28.34
2022-08-27T08:42:28.445Z,28.44
2022-08-27T08:45:35.332Z,28.61
2022-08-27T08:48:42.800Z,28.73
2022-08-27T08:51:45.717Z,28.83
2022-08-27T08:54:51.674Z,28.91
2022-08-27T08:58:13.033Z,28.99
2022-08-27T09:01:20.775Z,29.28
2022-08-27T09:04:25.868Z,29.42
2022-08-27T09:07:47.251Z,29.57
2022-08-27T09:11:13.319Z,29.67
2022-08-27T09:14:34.688Z,29.73
2022-08-27T09:17:37.944Z,29.97
2022-08-27T09:20:45.523Z,30.02
2022-08-27T09:24:01.887Z,30.24
2022-08-27T09:27:05.144Z,30.27
2022-08-27T09:30:21.420Z,30.31
2022-08-27T09:33:24.374Z,30.46
2022-08-27T09:36:26.951Z,30.59
2022-08-27T09:40:27.389Z,30.65
2022-08-27T09:43:32.025Z,30.81
2022-08-27T09:46:34.977Z,30.90
2022-08-27T09:49:38.608Z,30.96
2022-08-27T09:52:56.839Z,31.00
2022-08-27T09:56:03.253Z,31.00
2022-08-27T09:59:07.925Z,31.13
2022-08-27T10:02:19.602Z,31.33
2022-08-27T10:05:31.285Z,31.40
2022-08-27T10:08:48.816Z,31.29
2022-08-27T10:12:03.572Z,31.48
2022-08-27T10:15:07.082Z,31.70
2022-08-27T10:18:19.795Z,31.80
2022-08-27T10:21:33.841Z,31.78
2022-08-27T10:25:02.908Z,31.76
2022-08-27T10:28:30.704Z,31.87
2022-08-27T10:32:25.515Z,31.98
2022-08-27T10:35:51.853Z,31.92
2022-08-27T10:39:19.069Z,31.96
2022-08-27T10:42:32.598Z,32.03
2022-08-27T10:45:47.712Z,31.98
2022-08-27T10:49:14.604Z,32.16
2022-08-27T10:52:43.260Z,32.13
2022-08-27T10:55:52.357Z,32.33
2022-08-27T10:59:13.467Z,32.35
2022-08-27T11:02:19.286Z,32.42
2022-08-27T11:05:25.007Z,32.58
2022-08-27T11:08:36.369Z,32.67
2022-08-27T11:12:12.796Z,32.71
2022-08-27T11:15:12.997Z,32.93
2022-08-27T11:18:42.316Z,32.92
2022-08-27T11:22:01.291Z,32.93
2022-08-27T11:25:10.358Z,32.86
2022-08-27T11:28:14.339Z,33.10
2022-08-27T11:31:21.091Z,32.91
2022-08-27T11:34:32.962Z,33.00
2022-08-27T11:38:29.912Z,33.04
2022-08-27T11:41:50.399Z,33.30
2022-08-27T11:45:03.933Z,33.05
2022-08-27T11:48:21.406Z,33.16
2022-08-27T11:51:35.071Z,33.00
2022-08-27T11:55:16.675Z,32.79
2022-08-27T11:58:20.224Z,33.21
2022-08-27T12:01:31.755Z,33.14
2022-08-27T12:04:39.674Z,33.30
2022-08-27T12:07:46.068Z,33.22
2022-08-27T12:11:10.778Z,33.17
2022-08-27T12:14:17.530Z,33.22
2022-08-27T12:17:36.286Z,33.40
2022-08-27T12:21:03.033Z,33.51
2022-08-27T12:24:13.896Z,33.29
2022-08-27T12:27:24.314Z,33.11
2022-08-27T12:30:36.873Z,33.35
2022-08-27T12:33:46.804Z,32.74
2022-08-27T12:36:52.647Z,33.16
2022-08-27T12:39:58.882Z,32.92
2022-08-27T12:43:13.004Z,33.15
2022-08-27T12:46:19.172Z,33.36
2022-08-27T12:49:38.975Z,33.31
2022-08-27T12:52:54.166Z,33.45
2022-08-27T12:56:20.351Z,33.69
2022-08-27T12:59:44.117Z,33.52
2022-08-27T13:03:07.057Z,33.77
2022-08-27T13:06:33.078Z,33.86
2022-08-27T13:09:39.304Z,33.88
2022-08-27T13:12:43.334Z,33.78
2022-08-27T13:15:56.667Z,33.87
2022-08-27T13:18:59.944Z,33.85
2022-08-27T13:22:06.027Z,33.62
2022-08-27T13:25:30.254Z,33.95
2022-08-27T13:28:34.884Z,33.88
2022-08-27T13:31:38.340Z,33.91
2022-08-27T13:34:41.577Z,33.83
2022-08-27T13:37:48.286Z,34.04
2022-08-27T13:41:08.203Z,34.18
2022-08-27T13:44:32.541Z,34.19
2022-08-27T13:47:46.634Z,34.17
2022-08-27T13:50:53.050Z,33.96
2022-08-27T13:54:16.005Z,34.09
2022-08-27T13:57:30.294Z,34.18
2022-08-27T14:00:33.995Z,34.13
2022-08-27T14:03:47.558Z,34.18
2022-08-27T14:06:51.295Z,34.27
2022-08-27T14:09:58.902Z,34.25
2022-08-27T14:13:15.557Z,34.25
2022-08-27T14:16:27.559Z,34.28
2022-08-27T14:19:36.192Z,34.33
2022-08-27T14:22:39.993Z,34.33
2022-08-27T14:25:42.556Z,34.41
2022-08-27T14:28:46.195Z,34.49
2022-08-27T14:31:49.037Z,34.26
2022-08-27T14:34:53.339Z,34.30
2022-08-27T14:37:57.083Z,34.31
2022-08-27T14:41:00.682Z,34.36
2022-08-27T14:44:03.859Z,34.29
2022-08-27T14:47:09.676Z,34.37
2022-08-27T14:50:14.163Z,34.49
2022-08-27T14:53:17.523Z,34.37
2022-08-27T14:56:21.307Z,34.38
2022-08-27T14:59:25.855Z,34.43
2022-08-27T15:02:28.685Z,34.31
2022-08-27T15:05:31.639Z,34.36
2022-08-27T15:08:34.986Z,34.16
2022-08-27T15:11:41.678Z,34.19
2022-08-27T15:14:44.490Z,34.08
2022-08-27T15:17:47.626Z,33.90
2022-08-27T15:20:50.486Z,33.85
2022-08-27T15:24:01.330Z,33.78
2022-08-27T15:27:04.192Z,33.70
2022-08-27T15:30:09.941Z,33.80
2022-08-27T15:33:12.653Z,33.75
2022-08-27T15:36:15.865Z,33.58
2022-08-27T15:39:18.477Z,33.73
2022-08-27T15:42:21.613Z,33.44
2022-08-27T15:45:25.661Z,33.22
2022-08-27T15:48:31.345Z,33.27
2022-08-27T15:51:34.376Z,33.08
2022-08-27T15:54:37.476Z,32.89
2022-08-27T15:57:40.276Z,32.76
2022-08-27T16:00:46.500Z,32.71
2022-08-27T16:03:50.143Z,32.59
2022-08-27T16:06:54.919Z,32.45
2022-08-27T16:09:57.896Z,32.29
2022-08-27T16:13:00.871Z,32.16
2022-08-27T16:16:07.093Z,32.04
2022-08-27T16:19:12.583Z,31.88
2022-08-27T16:22:19.139Z,31.78
2022-08-27T16:25:23.374Z,31.34
2022-08-27T16:28:27.000Z,31.04
2022-08-27T16:31:30.046Z,30.64
2022-08-27T16:34:35.587Z,30.23
2022-08-27T16:37:38.282Z,30.07
2022-08-27T16:40:46.808Z,29.94
2022-08-27T16:43:50.043Z,29.64
2022-08-27T16:46:53.165Z,29.42
2022-08-27T16:50:22.900Z,29.20
2022-08-27T16:53:27.688Z,28.99
2022-08-27T16:56:32.830Z,28.75
2022-08-27T16:59:39.444Z,28.62
2022-08-27T17:02:42.618Z,28.47
2022-08-27T17:05:45.951Z,28.29
2022-08-27T17:08:53.997Z,28.12
2022-08-27T17:11:58.594Z,27.96
2022-08-27T17:15:01.496Z,27.84
2022-08-27T17:18:04.772Z,27.73
2022-08-27T17:21:07.720Z,27.57
2022-08-27T17:24:12.715Z,27.43
2022-08-27T17:27:17.903Z,27.25
2022-08-27T17:30:21.132Z,27.13
2022-08-27T17:33:34.424Z,26.96
2022-08-27T17:36:37.434Z,26.81
2022-08-27T17:39:40.153Z,26.66
2022-08-27T17:42:43.091Z,26.53
2022-08-27T17:45:45.788Z,26.36
2022-08-27T17:48:48.771Z,26.34
2022-08-27T17:51:56.364Z,26.27
2022-08-27T17:54:59.869Z,26.14
2022-08-27T17:58:02.547Z,26.06
2022-08-27T18:01:05.844Z,25.92
2022-08-27T18:04:14.544Z,25.82
2022-08-27T18:07:17.611Z,25.65
2022-08-27T18:10:23.908Z,25.66
2022-08-27T18:13:27.123Z,25.51
2022-08-27T18:16:30.239Z,25.52
2022-08-27T18:19:33.000Z,25.41
2022-08-27T18:22:38.894Z,25.26
2022-08-27T18:25:44.392Z,25.14
2022-08-27T18:28:47.847Z,25.01
2022-08-27T18:31:50.559Z,24.93
2022-08-27T18:34:56.348Z,24.87
2022-08-27T18:37:59.630Z,24.79
2022-08-27T18:41:03.244Z,24.57
2022-08-27T18:44:11.539Z,24.63
2022-08-27T18:47:20.310Z,24.54
2022-08-27T18:50:24.007Z,24.24
2022-08-27T18:53:29.756Z,24.23
2022-08-27T18:56:33.186Z,24.24
2022-08-27T18:59:36.199Z,24.22
2022-08-27T19:02:40.767Z,24.20
2022-08-27T19:05:43.933Z,24.16
2022-08-27T19:08:47.653Z,24.17
2022-08-27T19:11:51.941Z,24.05
2022-08-27T19:14:54.611Z,24.00
2022-08-27T19:17:59.543Z,23.92
2022-08-27T19:21:02.689Z,23.81
2022-08-27T19:24:06.723Z,23.70
2022-08-27T19:27:09.717Z,23.66
2022-08-27T19:30:15.432Z,23.63
2022-08-27T19:33:18.194Z,23.55
2022-08-27T19:36:23.438Z,23.38
2022-08-27T19:39:30.196Z,23.32
2022-08-27T19:42:33.183Z,23.29
2022-08-27T19:45:36.502Z,23.21
2022-08-27T19:48:43.481Z,23.33
2022-08-27T19:51:46.100Z,23.34
2022-08-27T19:55:10.181Z,23.25
2022-08-27T19:58:13.580Z,23.20
2022-08-27T20:01:16.712Z,23.12
2022-08-27T20:04:20.552Z,22.97
2022-08-27T20:07:23.232Z,22.84
2022-08-27T20:10:36.112Z,22.69
2022-08-27T20:13:47.896Z,22.65
2022-08-27T20:16:53.958Z,22.61
2022-08-27T20:19:58.869Z,22.57
2022-08-27T20:23:03.711Z,22.45
2022-08-27T20:26:06.411Z,22.37
2022-08-27T20:29:11.324Z,22.45
2022-08-27T20:32:19.514Z,22.36
2022-08-27T20:35:22.655Z,22.29
2022-08-27T20:38:25.732Z,22.32
2022-08-27T20:41:29.318Z,22.28
2022-08-27T20:44:32.419Z,22.23
2022-08-27T20:47:35.728Z,22.20
2022-08-27T20:50:38.854Z,22.17
2022-08-27T20:53:41.963Z,22.15
2022-08-27T20:56:52.164Z,22.11
2022-08-27T21:00:14.605Z,21.95
2022-08-27T21:03:17.286Z,21.97
2022-08-27T21:06:23.923Z,21.97
2022-08-27T21:09:28.816Z,21.92
2022-08-27T21:12:31.948Z,21.91
2022-08-27T21:15:34.636Z,21.79
2022-08-27T21:18:37.695Z,21.77
2022-08-27T21:21:40.374Z,21.77
2022-08-27T21:24:43.322Z,21.61
2022-08-27T21:27:45.944Z,21.72
2022-08-27T21:30:48.876Z,21.58
2022-08-27T21:33:51.983Z,21.51
2022-08-27T21:36:54.997Z,21.44
2022-08-27T21:39:57.657Z,21.32
2022-08-27T21:43:01.913Z,21.34
2022-08-27T21:46:04.713Z,21.32
2022-08-27T21:49:07.760Z,21.01
2022-08-27T21:52:10.612Z,21.18
2022-08-27T21:55:13.683Z,21.27
2022-08-27T21:58:16.314Z,21.43
2022-08-27T22:01:19.903Z,21.40
2022-08-27T22:04:23.160Z,21.17
2022-08-27T22:07:30.145Z,21.30
2022-08-27T22:10:33.476Z,21.28
2022-08-27T22:13:36.813Z,21.26
2022-08-27T22:16:39.833Z,21.30
2022-08-27T22:19:42.867Z,21.28
2022-08-27T22:22:45.805Z,21.30
2022-08-27T22:25:49.043Z,21.26
2022-08-27T22:28:52.136Z,21.21
2022-08-27T22:31:54.753Z,21.21
2022-08-27T22:34:57.657Z,21.13
2022-08-27T22:38:00.564Z,21.14
2022-08-27T22:41:03.739Z,21.10
2022-08-27T22:44:06.439Z,21.12
2022-08-27T22:47:10.340Z,21.08
2022-08-27T22:50:13.346Z,21.01
2022-08-27T22:53:16.299Z,20.84
2022-08-27T22:56:19.375Z,20.88
2022-08-27T22:59:22.587Z,20.84
2022-08-27T23:02:25.168Z,20.95
2022-08-27T23:05:28.702Z,20.89
2022-08-27T23:08:42.947Z,20.79
2022-08-27T23:11:45.927Z,20.69
2022-08-27T23:14:48.601Z,20.79
2022-08-27T23:17:52.369Z,20.70
2022-08-27T23:20:55.647Z,20.67
2022-08-27T23:23:58.676Z,20.69
2022-08-27T23:27:39.734Z,20.63
2022-08-27T23:30:44.862Z,20.59
2022-08-27T23:33:52.253Z,20.60
2022-08-27T23:36:56.237Z,20.52
2022-08-27T23:39:59.088Z,20.44
2022-08-27T23:43:02.146Z,20.46
2022-08-27T23:46:04.998Z,20.43
2022-08-27T23:49:07.976Z,20.44
2022-08-27T23:52:12.215Z,20.45
2022-08-27T23:55:15.237Z,20.43
2022-08-27T23:58:17.939Z,20.44
